createdAt,value
2018-05-02T00:00:07.923Z,14.47
2018-05-02T00:00:48.444Z,14.57
2018-05-02T00:01:28.972Z,14.65
2018-05-02T00:02:09.497Z,14.57
2018-05-02T00:02:50.025Z,14.51
2018-05-02T00:03:30.569Z,14.47
2018-05-02T00:04:11.046Z,14.5
2018-05-02T00:04:51.563Z,14.45
2018-05-02T00:05:32.077Z,14.65
2018-05-02T00:06:12.601Z,14.57
2018-05-02T00:06:53.103Z,14.58
2018-05-02T00:07:33.644Z,14.62
2018-05-02T00:08:14.152Z,14.62
2018-05-02T00:08:54.669Z,14.64
2018-05-02T00:09:35.192Z,14.65
2018-05-02T00:10:15.703Z,14.61
2018-05-02T00:10:56.228Z,14.47
2018-05-02T00:11:36.739Z,14.57
2018-05-02T00:12:17.259Z,14.46
2018-05-02T00:12:57.796Z,14.54
2018-05-02T00:13:38.317Z,14.52
2018-05-02T00:14:18.822Z,14.5
2018-05-02T00:14:59.326Z,14.57
2018-05-02T00:15:39.849Z,14.61
2018-05-02T00:16:20.370Z,14.58
2018-05-02T00:17:00.881Z,14.61
2018-05-02T00:17:41.398Z,14.55
2018-05-02T00:18:21.920Z,14.62
2018-05-02T00:19:02.442Z,14.5
2018-05-02T00:19:42.953Z,14.54
2018-05-02T00:20:23.480Z,14.64
2018-05-02T00:21:04.015Z,14.46
2018-05-02T00:21:44.528Z,14.5
2018-05-02T00:22:25.037Z,14.47
2018-05-02T00:23:05.572Z,14.36
2018-05-02T00:23:46.084Z,14.43
2018-05-02T00:24:26.596Z,14.4
2018-05-02T00:25:07.117Z,14.42
2018-05-02T00:25:47.647Z,14.43
2018-05-02T00:26:28.154Z,14.4
2018-05-02T00:27:08.652Z,14.36
2018-05-02T00:27:49.165Z,14.45
2018-05-02T00:28:29.680Z,14.43
2018-05-02T00:29:10.201Z,14.4
2018-05-02T00:29:50.730Z,14.43
2018-05-02T00:30:31.272Z,14.45
2018-05-02T00:31:11.756Z,14.46
2018-05-02T00:31:52.286Z,14.54
2018-05-02T00:32:32.793Z,14.45
2018-05-02T00:33:13.333Z,14.39
2018-05-02T00:33:53.853Z,14.33
2018-05-02T00:34:34.374Z,14.4
2018-05-02T00:35:14.879Z,14.37
2018-05-02T00:35:55.397Z,14.4
2018-05-02T00:36:35.919Z,14.24
2018-05-02T00:37:16.481Z,14.29
2018-05-02T00:37:56.955Z,14.27
2018-05-02T00:38:37.465Z,14.35
2018-05-02T00:39:17.973Z,14.24
2018-05-02T00:39:58.474Z,14.32
2018-05-02T00:40:39.005Z,14.2
2018-05-02T00:41:19.529Z,14.17
2018-05-02T00:42:00.050Z,14.17
2018-05-02T00:42:40.560Z,14.09
2018-05-02T00:43:21.085Z,14.18
2018-05-02T00:44:01.596Z,14.21
2018-05-02T00:44:42.116Z,14.2
2018-05-02T00:45:22.623Z,14.17
2018-05-02T00:46:03.150Z,14.27
2018-05-02T00:46:43.674Z,14.1
2018-05-02T00:47:24.191Z,14.21
2018-05-02T00:48:04.702Z,14.17
2018-05-02T00:48:45.214Z,14.15
2018-05-02T00:49:25.729Z,14.17
2018-05-02T00:50:06.235Z,14.06
2018-05-02T00:50:46.809Z,14.04
2018-05-02T00:51:27.337Z,14.04
2018-05-02T00:52:07.859Z,14.17
2018-05-02T00:52:48.357Z,14.18
2018-05-02T00:53:28.899Z,13.92
2018-05-02T00:54:09.423Z,14.07
2018-05-02T00:54:49.941Z,14.07
2018-05-02T00:55:30.450Z,14.09
2018-05-02T00:56:10.962Z,14.03
2018-05-02T00:58:10.905Z,14.06
2018-05-02T00:58:51.412Z,13.92
2018-05-02T00:59:31.922Z,14.02
2018-05-02T01:00:12.445Z,14.09
2018-05-02T01:00:52.984Z,14.04
2018-05-02T01:01:33.509Z,14
2018-05-02T01:02:14.027Z,14.09
2018-05-02T01:02:54.566Z,14
2018-05-02T01:03:35.054Z,13.96
2018-05-02T01:04:15.571Z,13.97
2018-05-02T01:04:56.082Z,14.04
2018-05-02T01:05:36.600Z,13.84
2018-05-02T01:06:17.121Z,13.92
2018-05-02T01:06:57.630Z,14.02
2018-05-02T01:07:38.163Z,13.91
2018-05-02T01:08:18.658Z,14.04
2018-05-02T01:08:59.165Z,14.06
2018-05-02T01:09:39.677Z,14.07
2018-05-02T01:10:20.185Z,14.07
2018-05-02T01:11:00.697Z,14.1
2018-05-02T01:11:41.216Z,14
2018-05-02T01:12:21.733Z,14.02
2018-05-02T01:13:02.306Z,13.97
2018-05-02T01:13:42.781Z,14.02
2018-05-02T01:14:23.301Z,13.97
2018-05-02T01:15:03.819Z,13.95
2018-05-02T01:15:44.338Z,13.97
2018-05-02T01:16:24.854Z,14.06
2018-05-02T01:17:05.366Z,14.03
2018-05-02T01:17:45.881Z,14.14
2018-05-02T01:18:26.414Z,14.12
2018-05-02T01:19:06.901Z,14.15
2018-05-02T01:19:47.403Z,14.03
2018-05-02T01:20:27.906Z,14.09
2018-05-02T01:21:08.429Z,14.06
2018-05-02T01:21:49.008Z,14.06
2018-05-02T01:22:29.523Z,13.96
2018-05-02T01:23:10.046Z,14.06
2018-05-02T01:23:50.579Z,13.97
2018-05-02T01:24:31.104Z,13.95
2018-05-02T01:25:11.618Z,13.95
2018-05-02T01:25:52.151Z,13.91
2018-05-02T01:26:32.672Z,14.12
2018-05-02T01:27:13.176Z,14.03
2018-05-02T01:27:53.715Z,13.89
2018-05-02T01:28:34.223Z,14.02
2018-05-02T01:29:14.730Z,14.03
2018-05-02T01:29:55.258Z,14.02
2018-05-02T01:30:35.771Z,13.88
2018-05-02T01:31:16.274Z,13.85
2018-05-02T01:31:56.796Z,13.92
2018-05-02T01:32:37.311Z,13.87
2018-05-02T01:33:17.832Z,13.88
2018-05-02T01:33:58.337Z,13.82
2018-05-02T01:34:38.862Z,13.64
2018-05-02T01:35:19.380Z,13.73
2018-05-02T01:35:59.921Z,13.79
2018-05-02T01:36:40.411Z,13.81
2018-05-02T01:37:20.926Z,13.79
2018-05-02T01:38:01.451Z,13.75
2018-05-02T01:38:41.960Z,13.81
2018-05-02T01:39:22.470Z,13.84
2018-05-02T01:40:02.991Z,13.81
2018-05-02T01:40:43.498Z,13.81
2018-05-02T01:41:24.023Z,13.78
2018-05-02T01:42:04.527Z,13.77
2018-05-02T01:42:45.144Z,13.84
2018-05-02T01:43:25.661Z,13.77
2018-05-02T01:44:06.174Z,13.62
2018-05-02T01:44:46.688Z,13.6
2018-05-02T01:45:27.218Z,13.52
2018-05-02T01:46:07.745Z,13.55
2018-05-02T01:46:48.290Z,13.55
2018-05-02T01:47:28.745Z,13.52
2018-05-02T01:48:09.256Z,13.51
2018-05-02T01:48:49.776Z,13.55
2018-05-02T01:49:30.299Z,13.63
2018-05-02T01:50:10.830Z,13.62
2018-05-02T01:50:51.369Z,13.62
2018-05-02T01:51:31.879Z,13.69
2018-05-02T01:52:12.397Z,13.7
2018-05-02T01:52:52.914Z,13.84
2018-05-02T01:53:33.429Z,13.77
2018-05-02T01:54:13.950Z,13.6
2018-05-02T01:54:54.477Z,13.7
2018-05-02T01:55:34.981Z,13.6
2018-05-02T01:56:15.512Z,13.64
2018-05-02T01:56:56.028Z,13.59
2018-05-02T01:57:36.541Z,13.73
2018-05-02T01:58:17.060Z,13.73
2018-05-02T01:58:57.586Z,13.75
2018-05-02T01:59:38.104Z,13.82
2018-05-02T02:00:18.620Z,13.81
2018-05-02T02:00:59.130Z,13.77
2018-05-02T02:01:39.643Z,13.87
2018-05-02T02:02:20.167Z,13.79
2018-05-02T02:03:00.677Z,13.64
2018-05-02T02:04:48.162Z,13.84
2018-05-02T02:05:28.661Z,13.84
2018-05-02T02:06:09.176Z,13.81
2018-05-02T02:06:49.680Z,13.6
2018-05-02T02:07:30.206Z,13.57
2018-05-02T02:08:10.723Z,13.6
2018-05-02T02:08:51.251Z,13.52
2018-05-02T02:09:31.754Z,13.54
2018-05-02T02:10:12.276Z,13.48
2018-05-02T02:10:52.786Z,13.54
2018-05-02T02:11:33.308Z,13.54
2018-05-02T02:12:13.856Z,13.55
2018-05-02T02:12:54.367Z,13.64
2018-05-02T02:13:34.892Z,13.63
2018-05-02T02:14:15.403Z,13.69
2018-05-02T02:14:55.913Z,13.75
2018-05-02T02:15:36.443Z,13.71
2018-05-02T02:16:16.952Z,13.84
2018-05-02T02:16:57.460Z,13.78
2018-05-02T02:17:37.993Z,13.69
2018-05-02T02:18:18.512Z,13.71
2018-05-02T02:18:59.031Z,13.64
2018-05-02T02:19:39.550Z,13.67
2018-05-02T02:20:20.065Z,13.63
2018-05-02T02:21:00.583Z,13.59
2018-05-02T02:21:41.097Z,13.55
2018-05-02T02:22:21.629Z,13.6
2018-05-02T02:23:02.149Z,13.57
2018-05-02T02:23:42.656Z,13.57
2018-05-02T02:24:23.168Z,13.45
2018-05-02T02:25:03.694Z,13.54
2018-05-02T02:25:44.205Z,13.42
2018-05-02T02:26:24.730Z,13.54
2018-05-02T02:27:05.242Z,13.44
2018-05-02T02:27:45.758Z,13.32
2018-05-02T02:28:26.262Z,13.36
2018-05-02T02:29:06.773Z,13.44
2018-05-02T02:29:47.288Z,13.42
2018-05-02T02:30:27.798Z,13.32
2018-05-02T02:31:08.321Z,13.39
2018-05-02T02:31:48.836Z,13.29
2018-05-02T02:32:29.376Z,13.36
2018-05-02T02:33:09.898Z,13.45
2018-05-02T02:33:50.414Z,13.46
2018-05-02T02:34:30.932Z,13.28
2018-05-02T02:35:11.515Z,13.39
2018-05-02T02:35:51.957Z,13.32
2018-05-02T02:36:32.452Z,13.12
2018-05-02T02:37:12.971Z,13.14
2018-05-02T02:37:53.498Z,12.97
2018-05-02T02:38:33.999Z,13.08
2018-05-02T02:39:14.533Z,13.12
2018-05-02T02:39:55.038Z,13.26
2018-05-02T02:40:35.540Z,13.3
2018-05-02T02:41:16.091Z,13.41
2018-05-02T02:41:56.603Z,13.29
2018-05-02T02:42:37.125Z,13.19
2018-05-02T02:43:17.626Z,13
2018-05-02T02:43:58.178Z,13.08
2018-05-02T02:44:38.698Z,13.14
2018-05-02T02:45:19.199Z,13.19
2018-05-02T02:45:59.721Z,13.23
2018-05-02T02:46:40.218Z,13.41
2018-05-02T02:47:20.736Z,13.25
2018-05-02T02:48:01.261Z,13.19
2018-05-02T02:48:41.770Z,13.12
2018-05-02T02:49:22.271Z,12.92
2018-05-02T02:50:02.771Z,13
2018-05-02T02:50:43.302Z,13.14
2018-05-02T02:51:23.800Z,13.1
2018-05-02T02:52:04.316Z,13.08
2018-05-02T02:52:44.846Z,13.12
2018-05-02T02:53:25.352Z,13.04
2018-05-02T02:54:05.851Z,13.17
2018-05-02T02:54:46.369Z,13.1
2018-05-02T02:55:26.880Z,13.22
2018-05-02T02:56:07.391Z,13.11
2018-05-02T02:56:47.901Z,13.04
2018-05-02T02:57:28.421Z,13.01
2018-05-02T02:58:08.925Z,12.97
2018-05-02T02:58:49.441Z,12.93
2018-05-02T02:59:29.950Z,12.86
2018-05-02T03:00:10.466Z,13
2018-05-02T03:00:50.976Z,13.1
2018-05-02T03:01:31.494Z,13.22
2018-05-02T03:02:12.009Z,13.1
2018-05-02T03:02:52.520Z,12.97
2018-05-02T03:03:33.037Z,12.93
2018-05-02T03:04:13.593Z,13.01
2018-05-02T03:04:54.117Z,13.07
2018-05-02T03:05:34.625Z,13.11
2018-05-02T03:06:15.254Z,13.2
2018-05-02T03:06:55.772Z,13.11
2018-05-02T03:07:36.294Z,13.1
2018-05-02T03:08:16.819Z,13.12
2018-05-02T03:08:57.319Z,13.25
2018-05-02T03:09:37.856Z,13.12
2018-05-02T03:10:18.382Z,13.2
2018-05-02T03:10:58.914Z,13.28
2018-05-02T03:11:39.435Z,13.25
2018-05-02T03:12:19.950Z,13.26
2018-05-02T03:13:00.466Z,13.3
2018-05-02T03:13:40.984Z,13.36
2018-05-02T03:14:21.495Z,13.23
2018-05-02T03:15:02.015Z,13.36
2018-05-02T03:15:42.524Z,13.45
2018-05-02T03:16:23.039Z,13.45
2018-05-02T03:17:03.558Z,13.42
2018-05-02T03:17:44.081Z,13.41
2018-05-02T03:18:24.600Z,13.41
2018-05-02T03:19:05.114Z,13.33
2018-05-02T03:19:45.637Z,13.28
2018-05-02T03:20:26.146Z,13.44
2018-05-02T03:21:06.664Z,13.48
2018-05-02T03:21:47.168Z,13.59
2018-05-02T03:22:27.686Z,13.55
2018-05-02T03:23:08.202Z,13.59
2018-05-02T03:23:48.711Z,13.55
2018-05-02T03:24:29.268Z,13.54
2018-05-02T03:25:09.769Z,13.44
2018-05-02T03:25:50.278Z,13.54
2018-05-02T03:26:30.795Z,13.45
2018-05-02T03:27:11.455Z,13.45
2018-05-02T03:27:51.930Z,13.45
2018-05-02T03:28:32.422Z,13.49
2018-05-02T03:29:12.945Z,13.55
2018-05-02T03:29:53.446Z,13.54
2018-05-02T03:30:33.975Z,13.45
2018-05-02T03:31:14.491Z,13.33
2018-05-02T03:31:55.013Z,13.3
2018-05-02T03:32:35.518Z,13.32
2018-05-02T03:33:16.037Z,13.3
2018-05-02T03:33:56.549Z,13.33
2018-05-02T03:34:37.078Z,13.33
2018-05-02T03:35:17.613Z,13.23
2018-05-02T03:35:58.115Z,13.39
2018-05-02T03:36:38.643Z,13.57
2018-05-02T03:37:19.199Z,13.45
2018-05-02T03:37:59.721Z,13.6
2018-05-02T03:38:40.243Z,13.55
2018-05-02T03:39:20.765Z,13.6
2018-05-02T03:40:01.285Z,13.55
2018-05-02T03:40:41.785Z,13.57
2018-05-02T03:41:22.305Z,13.62
2018-05-02T03:42:02.815Z,13.57
2018-05-02T03:42:43.323Z,13.59
2018-05-02T03:43:23.836Z,13.54
2018-05-02T03:44:04.344Z,13.46
2018-05-02T03:44:44.853Z,13.38
2018-05-02T03:45:25.380Z,13.46
2018-05-02T03:46:05.932Z,13.55
2018-05-02T03:46:46.432Z,13.57
2018-05-02T03:47:26.952Z,13.57
2018-05-02T03:48:07.464Z,13.51
2018-05-02T03:48:47.986Z,13.62
2018-05-02T03:49:28.503Z,13.52
2018-05-02T03:50:09.023Z,13.62
2018-05-02T03:50:49.534Z,13.59
2018-05-02T03:51:30.049Z,13.62
2018-05-02T03:52:10.570Z,13.62
2018-05-02T03:52:51.098Z,13.62
2018-05-02T03:53:31.615Z,13.63
2018-05-02T03:54:12.136Z,13.66
2018-05-02T03:54:52.663Z,13.66
2018-05-02T03:55:33.189Z,13.62
2018-05-02T03:56:13.689Z,13.59
2018-05-02T03:56:54.223Z,13.51
2018-05-02T03:57:34.791Z,13.59
2018-05-02T03:58:15.320Z,13.64
2018-05-02T03:58:55.828Z,13.6
2018-05-02T03:59:36.346Z,13.71
2018-05-02T04:00:16.877Z,13.81
2018-05-02T04:00:57.369Z,13.7
2018-05-02T04:01:37.898Z,13.6
2018-05-02T04:02:18.409Z,13.51
2018-05-02T04:02:58.911Z,13.55
2018-05-02T04:03:39.444Z,13.63
2018-05-02T04:04:19.958Z,13.62
2018-05-02T04:05:00.467Z,13.66
2018-05-02T04:05:40.978Z,13.7
2018-05-02T04:06:21.498Z,13.73
2018-05-02T04:07:02.020Z,13.64
2018-05-02T04:07:42.524Z,13.63
2018-05-02T04:08:23.024Z,13.6
2018-05-02T04:09:03.555Z,13.6
2018-05-02T04:09:44.074Z,13.54
2018-05-02T04:10:24.600Z,13.44
2018-05-02T04:11:05.107Z,13.51
2018-05-02T04:11:45.632Z,13.55
2018-05-02T04:12:26.133Z,13.51
2018-05-02T04:13:06.649Z,13.54
2018-05-02T04:13:47.191Z,13.52
2018-05-02T04:14:27.699Z,13.57
2018-05-02T04:15:08.227Z,13.49
2018-05-02T04:15:48.737Z,13.46
2018-05-02T04:16:29.259Z,13.52
2018-05-02T04:17:09.771Z,13.44
2018-05-02T04:17:50.278Z,13.55
2018-05-02T04:18:30.791Z,13.54
2018-05-02T04:19:11.309Z,13.57
2018-05-02T04:19:51.819Z,13.55
2018-05-02T04:20:32.324Z,13.59
2018-05-02T04:21:12.854Z,13.46
2018-05-02T04:21:53.342Z,13.57
2018-05-02T04:22:33.864Z,13.52
2018-05-02T04:23:14.372Z,13.42
2018-05-02T04:23:54.895Z,13.38
2018-05-02T04:24:35.376Z,13.48
2018-05-02T04:25:15.934Z,13.32
2018-05-02T04:25:56.556Z,13.32
2018-05-02T04:26:37.068Z,13.46
2018-05-02T04:27:17.592Z,13.57
2018-05-02T04:27:58.071Z,13.52
2018-05-02T04:28:38.601Z,13.55
2018-05-02T04:29:19.124Z,13.62
2018-05-02T04:29:59.650Z,13.54
2018-05-02T04:30:40.283Z,13.49
2018-05-02T04:31:20.807Z,13.64
2018-05-02T04:32:01.333Z,13.59
2018-05-02T04:32:41.850Z,13.57
2018-05-02T04:33:27.732Z,13.6
2018-05-02T04:34:08.243Z,13.54
2018-05-02T04:34:48.765Z,13.57
2018-05-02T04:35:29.267Z,13.62
2018-05-02T04:36:09.785Z,13.6
2018-05-02T04:36:50.297Z,13.54
2018-05-02T04:37:30.825Z,13.52
2018-05-02T04:38:11.381Z,13.59
2018-05-02T04:38:51.913Z,13.57
2018-05-02T04:39:32.420Z,13.55
2018-05-02T04:40:12.941Z,13.51
2018-05-02T04:40:53.477Z,13.51
2018-05-02T04:41:33.963Z,13.57
2018-05-02T04:42:14.481Z,13.55
2018-05-02T04:42:55.001Z,13.54
2018-05-02T04:43:35.532Z,13.59
2018-05-02T04:44:16.058Z,13.55
2018-05-02T04:44:56.573Z,13.48
2018-05-02T04:45:37.111Z,13.26
2018-05-02T04:46:17.619Z,13.38
2018-05-02T04:46:58.137Z,13.29
2018-05-02T04:47:38.665Z,13.17
2018-05-02T04:48:19.210Z,13.3
2018-05-02T04:48:59.712Z,13.29
2018-05-02T04:49:40.366Z,13.3
2018-05-02T04:50:20.899Z,13.38
2018-05-02T04:51:01.405Z,13.33
2018-05-02T04:51:41.927Z,13.41
2018-05-02T04:52:22.444Z,13.23
2018-05-02T04:53:02.960Z,13.26
2018-05-02T04:53:43.496Z,13.33
2018-05-02T04:54:24.012Z,13.42
2018-05-02T04:55:04.529Z,13.38
2018-05-02T04:55:45.045Z,13.25
2018-05-02T04:56:25.561Z,13.3
2018-05-02T04:57:06.075Z,13.39
2018-05-02T04:57:46.591Z,13.45
2018-05-02T04:58:27.100Z,13.36
2018-05-02T04:59:07.623Z,13.45
2018-05-02T04:59:48.201Z,13.28
2018-05-02T05:00:28.678Z,13.33
2018-05-02T05:01:09.194Z,13.11
2018-05-02T05:01:49.714Z,13.26
2018-05-02T05:02:30.235Z,13.05
2018-05-02T05:03:10.770Z,13.04
2018-05-02T05:03:51.295Z,12.97
2018-05-02T05:04:31.810Z,13.11
2018-05-02T05:05:12.321Z,13.11
2018-05-02T05:05:52.835Z,13.07
2018-05-02T05:06:33.410Z,13.1
2018-05-02T05:07:13.874Z,13.12
2018-05-02T05:07:54.384Z,13.1
2018-05-02T05:08:34.898Z,12.93
2018-05-02T05:09:15.407Z,13.03
2018-05-02T05:09:55.940Z,13.1
2018-05-02T05:10:36.457Z,13.05
2018-05-02T05:11:16.984Z,13.12
2018-05-02T05:11:57.503Z,13.03
2018-05-02T05:12:38.026Z,13.01
2018-05-02T05:13:18.543Z,13.04
2018-05-02T05:13:59.086Z,12.93
2018-05-02T05:14:39.621Z,12.95
2018-05-02T05:15:20.150Z,13.01
2018-05-02T05:16:00.669Z,13.12
2018-05-02T05:16:41.216Z,13.08
2018-05-02T05:17:21.717Z,13.12
2018-05-02T05:18:02.253Z,13
2018-05-02T05:18:42.780Z,13.08
2018-05-02T05:19:23.320Z,13.07
2018-05-02T05:20:03.828Z,13
2018-05-02T05:20:44.337Z,13.12
2018-05-02T05:21:24.871Z,13.03
2018-05-02T05:22:05.429Z,13.1
2018-05-02T05:22:45.987Z,13.05
2018-05-02T05:23:26.585Z,13.01
2018-05-02T05:24:07.115Z,13.2
2018-05-02T05:24:47.659Z,13.11
2018-05-02T05:25:28.203Z,13.08
2018-05-02T05:26:08.698Z,13.23
2018-05-02T05:26:49.228Z,13.01
2018-05-02T05:27:29.749Z,13.08
2018-05-02T05:28:10.330Z,13.03
2018-05-02T05:28:50.767Z,12.92
2018-05-02T05:29:31.284Z,12.97
2018-05-02T05:30:11.810Z,13.01
2018-05-02T05:30:52.321Z,13
2018-05-02T05:31:32.877Z,13.11
2018-05-02T05:32:13.409Z,13.23
2018-05-02T05:32:53.953Z,13.29
2018-05-02T05:33:34.461Z,13.22
2018-05-02T05:34:14.983Z,13.14
2018-05-02T05:34:55.508Z,13.26
2018-05-02T05:35:36.025Z,13.28
2018-05-02T05:36:16.540Z,13.33
2018-05-02T05:36:57.071Z,13.42
2018-05-02T05:37:37.624Z,13.42
2018-05-02T05:38:18.146Z,13.48
2018-05-02T05:38:58.673Z,13.55
2018-05-02T05:39:39.191Z,13.55
2018-05-02T05:40:19.710Z,13.51
2018-05-02T05:41:00.247Z,13.52
2018-05-02T05:41:40.786Z,13.45
2018-05-02T05:42:21.301Z,13.52
2018-05-02T05:43:01.823Z,13.45
2018-05-02T05:43:42.389Z,13.57
2018-05-02T05:44:22.886Z,13.57
2018-05-02T05:45:03.420Z,13.44
2018-05-02T05:45:43.934Z,13.45
2018-05-02T05:46:24.455Z,13.23
2018-05-02T05:47:04.964Z,13.39
2018-05-02T05:47:45.474Z,13.36
2018-05-02T05:48:25.975Z,13.3
2018-05-02T05:49:06.519Z,13.36
2018-05-02T05:49:47.034Z,13.39
2018-05-02T05:50:27.564Z,13.23
2018-05-02T05:51:08.060Z,13.1
2018-05-02T05:51:48.581Z,13.08
2018-05-02T05:52:29.115Z,13.05
2018-05-02T05:53:09.745Z,12.93
2018-05-02T05:53:50.246Z,13.04
2018-05-02T05:54:30.945Z,12.96
2018-05-02T05:55:11.274Z,12.95
2018-05-02T05:55:51.785Z,13.12
2018-05-02T05:56:32.341Z,13.01
2018-05-02T05:57:12.854Z,13.07
2018-05-02T05:57:53.365Z,13.22
2018-05-02T05:58:33.885Z,13.25
2018-05-02T05:59:14.398Z,13.22
2018-05-02T05:59:54.909Z,13.22
2018-05-02T06:00:35.408Z,13.25
2018-05-02T06:01:15.947Z,13.42
2018-05-02T06:01:56.525Z,13.48
2018-05-02T06:02:37.044Z,13.59
2018-05-02T06:03:17.554Z,13.62
2018-05-02T06:03:58.146Z,13.57
2018-05-02T06:04:38.682Z,13.52
2018-05-02T06:05:19.212Z,13.55
2018-05-02T06:05:59.785Z,13.57
2018-05-02T06:06:40.293Z,13.6
2018-05-02T06:07:21.634Z,13.69
2018-05-02T06:08:02.175Z,13.69
2018-05-02T06:08:42.696Z,13.85
2018-05-02T06:09:23.230Z,13.79
2018-05-02T06:10:03.749Z,13.85
2018-05-02T06:10:44.263Z,13.97
2018-05-02T06:11:24.784Z,13.85
2018-05-02T06:12:05.919Z,13.91
2018-05-02T06:12:46.498Z,14.04
2018-05-02T06:13:26.977Z,14.2
2018-05-02T06:14:07.507Z,14.18
2018-05-02T06:14:48.025Z,14.2
2018-05-02T06:15:28.541Z,14.27
2018-05-02T06:16:09.136Z,14.37
2018-05-02T06:16:49.639Z,14.42
2018-05-02T06:17:30.157Z,14.54
2018-05-02T06:18:10.652Z,14.47
2018-05-02T06:18:51.202Z,14.33
2018-05-02T06:19:31.684Z,14.45
2018-05-02T06:20:12.220Z,14.45
2018-05-02T06:20:52.796Z,14.51
2018-05-02T06:21:33.325Z,14.64
2018-05-02T06:22:13.831Z,14.83
2018-05-02T06:22:54.365Z,14.8
2018-05-02T06:23:34.884Z,14.84
2018-05-02T06:24:15.410Z,14.8
2018-05-02T06:24:55.932Z,14.86
2018-05-02T06:25:36.453Z,14.81
2018-05-02T06:26:17.114Z,14.96
2018-05-02T06:26:57.621Z,15.03
2018-05-02T06:27:38.158Z,15.11
2018-05-02T06:28:18.751Z,15.03
2018-05-02T06:28:59.266Z,15.2
2018-05-02T06:29:39.801Z,15.29
2018-05-02T06:30:20.338Z,15.2
2018-05-02T06:31:00.880Z,15.06
2018-05-02T06:32:51.359Z,15.23
2018-05-02T06:33:32.279Z,15.2
2018-05-02T06:34:12.817Z,15.17
2018-05-02T06:34:53.331Z,15.16
2018-05-02T06:35:33.842Z,15.28
2018-05-02T06:36:14.387Z,15.36
2018-05-02T06:36:54.899Z,15.21
2018-05-02T06:37:35.508Z,15.07
2018-05-02T06:38:15.992Z,15.13
2018-05-02T06:38:56.512Z,15.06
2018-05-02T06:39:37.039Z,15.06
2018-05-02T06:40:17.558Z,14.89
2018-05-02T06:40:58.091Z,14.94
2018-05-02T06:41:38.609Z,15.03
2018-05-02T06:42:19.136Z,14.99
2018-05-02T06:42:59.734Z,15.02
2018-05-02T06:43:40.247Z,15.03
2018-05-02T06:44:20.749Z,15.13
2018-05-02T06:45:01.271Z,15.07
2018-05-02T06:45:41.813Z,15.09
2018-05-02T06:46:22.329Z,15.07
2018-05-02T06:47:02.836Z,15.07
2018-05-02T06:47:43.379Z,15.02
2018-05-02T06:48:23.892Z,15.07
2018-05-02T06:49:04.411Z,15.02
2018-05-02T06:49:44.933Z,15.02
2018-05-02T06:50:25.491Z,15.14
2018-05-02T06:51:05.959Z,15.21
2018-05-02T06:51:46.476Z,15.27
2018-05-02T06:52:26.994Z,15.19
2018-05-02T06:53:07.505Z,15.25
2018-05-02T06:53:48.024Z,15.38
2018-05-02T06:54:28.542Z,15.36
2018-05-02T06:55:09.053Z,15.44
2018-05-02T06:55:49.565Z,15.27
2018-05-02T06:56:30.080Z,15.23
2018-05-02T06:57:10.603Z,15.19
2018-05-02T06:57:51.128Z,15.36
2018-05-02T06:58:31.700Z,15.34
2018-05-02T06:59:12.205Z,15.31
2018-05-02T06:59:52.730Z,15.32
2018-05-02T07:00:33.287Z,15.35
2018-05-02T07:01:13.808Z,15.39
2018-05-02T07:01:54.321Z,15.51
2018-05-02T07:02:34.850Z,15.51
2018-05-02T07:03:15.363Z,15.62
2018-05-02T07:03:55.923Z,15.51
2018-05-02T07:04:36.436Z,15.57
2018-05-02T07:05:16.964Z,15.67
2018-05-02T07:05:57.557Z,15.46
2018-05-02T07:06:38.071Z,15.67
2018-05-02T07:07:18.580Z,15.78
2018-05-02T07:07:59.109Z,15.6
2018-05-02T07:08:39.634Z,15.71
2018-05-02T07:09:20.148Z,15.75
2018-05-02T07:10:00.661Z,15.8
2018-05-02T07:10:41.179Z,15.89
2018-05-02T07:11:21.748Z,15.97
2018-05-02T07:12:02.251Z,16.08
2018-05-02T07:12:42.771Z,16.01
2018-05-02T07:13:23.277Z,16.08
2018-05-02T07:14:03.808Z,16.2
2018-05-02T07:14:44.316Z,16.25
2018-05-02T07:15:24.828Z,16.42
2018-05-02T07:16:05.398Z,16.42
2018-05-02T07:16:45.928Z,16.5
2018-05-02T07:17:26.445Z,16.63
2018-05-02T07:18:06.971Z,16.56
2018-05-02T07:18:47.460Z,16.53
2018-05-02T07:19:27.998Z,16.45
2018-05-02T07:20:08.540Z,16.49
2018-05-02T07:20:49.061Z,16.57
2018-05-02T07:21:29.572Z,16.53
2018-05-02T07:22:10.148Z,16.49
2018-05-02T07:22:50.662Z,16.64
2018-05-02T07:23:31.174Z,16.53
2018-05-02T07:24:11.674Z,16.56
2018-05-02T07:24:52.201Z,16.53
2018-05-02T07:25:32.731Z,16.56
2018-05-02T07:26:13.305Z,16.67
2018-05-02T07:26:53.770Z,16.66
2018-05-02T07:27:34.260Z,16.82
2018-05-02T07:28:14.776Z,16.81
2018-05-02T07:28:55.300Z,16.79
2018-05-02T07:29:35.810Z,16.83
2018-05-02T07:30:16.330Z,16.82
2018-05-02T07:30:56.863Z,16.85
2018-05-02T07:31:37.380Z,16.75
2018-05-02T07:32:17.909Z,16.79
2018-05-02T07:32:58.518Z,16.85
2018-05-02T07:33:39.012Z,16.86
2018-05-02T07:34:19.528Z,16.97
2018-05-02T07:35:00.085Z,17.01
2018-05-02T07:35:40.587Z,17.04
2018-05-02T07:36:21.110Z,17.01
2018-05-02T07:37:01.622Z,16.91
2018-05-02T07:37:42.940Z,16.88
2018-05-02T07:38:23.456Z,17.04
2018-05-02T07:39:04.013Z,17.19
2018-05-02T07:39:44.549Z,17.23
2018-05-02T07:40:25.048Z,17.21
2018-05-02T07:41:05.569Z,17.22
2018-05-02T07:41:46.114Z,17.06
2018-05-02T07:42:26.636Z,17.12
2018-05-02T07:43:07.142Z,17.11
2018-05-02T07:43:47.766Z,17.08
2018-05-02T07:44:28.279Z,17.14
2018-05-02T07:45:08.795Z,17.01
2018-05-02T07:45:49.331Z,17.03
2018-05-02T07:46:29.839Z,17.01
2018-05-02T07:47:10.371Z,17.01
2018-05-02T07:47:50.885Z,17.03
2018-05-02T07:48:33.050Z,17.06
2018-05-02T07:49:13.553Z,16.91
2018-05-02T07:49:54.084Z,16.88
2018-05-02T07:50:34.618Z,17
2018-05-02T07:51:15.151Z,16.94
2018-05-02T07:51:55.748Z,17
2018-05-02T07:52:36.261Z,17.11
2018-05-02T07:53:16.952Z,17.04
2018-05-02T07:53:57.465Z,16.94
2018-05-02T07:54:37.980Z,17.04
2018-05-02T07:55:18.503Z,17.08
2018-05-02T07:55:59.159Z,16.85
2018-05-02T07:56:39.618Z,16.81
2018-05-02T07:57:20.117Z,16.91
2018-05-02T07:58:00.630Z,16.98
2018-05-02T07:58:41.156Z,16.98
2018-05-02T07:59:21.684Z,17.08
2018-05-02T08:00:02.197Z,17.18
2018-05-02T08:00:42.716Z,17.11
2018-05-02T08:01:23.249Z,17.06
2018-05-02T08:02:03.801Z,17.18
2018-05-02T08:02:44.545Z,17.19
2018-05-02T08:03:24.911Z,17.22
2018-05-02T08:04:05.456Z,17.23
2018-05-02T08:04:45.973Z,17.07
2018-05-02T08:05:26.493Z,17.25
2018-05-02T08:06:07.013Z,17.34
2018-05-02T08:06:47.510Z,17.46
2018-05-02T08:07:28.049Z,17.49
2018-05-02T08:09:07.686Z,17.16
2018-05-02T08:09:48.185Z,17.25
2018-05-02T08:10:28.713Z,17.12
2018-05-02T08:11:09.298Z,17.08
2018-05-02T08:11:49.755Z,17.16
2018-05-02T08:12:30.274Z,17.06
2018-05-02T08:13:10.787Z,17.07
2018-05-02T08:13:51.312Z,17.11
2018-05-02T08:14:31.829Z,17.07
2018-05-02T08:15:12.348Z,17.06
2018-05-02T08:15:52.873Z,17.04
2018-05-02T08:16:33.402Z,17.11
2018-05-02T08:17:13.921Z,16.94
2018-05-02T08:17:54.503Z,16.79
2018-05-02T08:18:35.013Z,16.75
2018-05-02T08:19:15.678Z,16.81
2018-05-02T08:19:56.229Z,16.85
2018-05-02T08:20:36.746Z,16.98
2018-05-02T08:21:17.366Z,17.06
2018-05-02T08:21:57.869Z,16.94
2018-05-02T08:22:38.372Z,17.01
2018-05-02T08:23:18.879Z,17.14
2018-05-02T08:23:59.438Z,17.06
2018-05-02T08:24:40.007Z,16.96
2018-05-02T08:25:20.497Z,16.83
2018-05-02T08:26:01.009Z,16.89
2018-05-02T08:26:41.529Z,16.98
2018-05-02T08:27:22.053Z,16.97
2018-05-02T08:28:02.553Z,17.03
2018-05-02T08:28:43.086Z,17.16
2018-05-02T08:29:23.556Z,17.22
2018-05-02T08:30:04.054Z,17.25
2018-05-02T08:30:44.565Z,17.33
2018-05-02T08:31:25.084Z,17.4
2018-05-02T08:32:05.771Z,17.4
2018-05-02T08:32:46.435Z,17.37
2018-05-02T08:33:26.869Z,17.43
2018-05-02T08:34:07.383Z,17.51
2018-05-02T08:34:47.887Z,17.46
2018-05-02T08:35:28.419Z,17.41
2018-05-02T08:36:08.919Z,17.43
2018-05-02T08:36:49.454Z,17.54
2018-05-02T08:37:29.955Z,17.56
2018-05-02T08:38:10.508Z,17.44
2018-05-02T08:38:51.050Z,17.43
2018-05-02T08:39:31.713Z,17.48
2018-05-02T08:40:12.237Z,17.44
2018-05-02T08:40:52.756Z,17.63
2018-05-02T08:41:33.266Z,17.56
2018-05-02T08:42:13.791Z,17.64
2018-05-02T08:42:54.296Z,17.63
2018-05-02T08:43:34.804Z,17.56
2018-05-02T08:44:15.311Z,17.54
2018-05-02T08:44:55.846Z,17.56
2018-05-02T08:45:36.353Z,17.52
2018-05-02T08:46:16.878Z,17.49
2018-05-02T08:46:57.406Z,17.54
2018-05-02T08:47:37.926Z,17.49
2018-05-02T08:48:18.446Z,17.36